Time;durP1;ratioP1;P1;durP2;ratioP2;P2;SDS_P1;SDS_P2;PMS_P1;PMS_P2;Temp;Humidity;BMP_temperature;BMP_pressure;BME280_temperature;BME280_humidity;BME280_pressure;Samples;Min_cycle;Max_cycle;Signal;HPM_P1;HPM_P2
2022/04/29 04:22:35;;;;;;;15.65;9.48;;;;;;;7.27;90.05;101224.72;5129441;27;20112;-71
2022/04/29 04:25:04;;;;;;;13.60;10.10;;;;;;;7.35;89.26;101228.38;5111538;28;20038;-72
2022/04/29 04:27:30;;;;;;;17.85;10.50;;;;;;;7.34;89.07;101234.66;5129511;28;20031;-71
2022/04/29 04:30:00;;;;;;;17.27;9.55;;;;;;;7.32;90.63;101227.81;5128156;28;20047;-72
2022/04/29 04:32:28;;;;;;;11.57;9.05;;;;;;;7.34;90.43;101231.19;5128170;28;20043;-71
2022/04/29 04:34:55;;;;;;;15.30;9.45;;;;;;;7.32;90.58;101239.25;5127887;28;20059;-71
2022/04/29 04:37:24;;;;;;;13.32;9.40;;;;;;;7.33;90.75;101234.81;5127759;28;20038;-70
2022/04/29 04:39:58;;;;;;;18.25;9.80;;;;;;;7.37;90.06;101240.66;5127810;28;20046;-72
2022/04/29 04:42:26;;;;;;;14.55;10.13;;;;;;;7.38;90.57;101242.38;5127448;28;20089;-71
2022/04/29 04:44:56;;;;;;;16.50;9.73;;;;;;;7.41;89.70;101247.41;5127825;28;20031;-72
2022/04/29 04:47:23;;;;;;;13.02;9.20;;;;;;;7.38;89.82;101247.69;5127538;28;20032;-71
2022/04/29 04:50:07;;;;;;;15.02;10.15;;;;;;;7.27;90.61;101246.75;5129139;28;20086;-71
2022/04/29 04:52:33;;;;;;;14.23;10.02;;;;;;;7.35;90.99;101249.59;5128720;27;20054;-71
2022/04/29 04:55:04;;;;;;;17.00;9.38;;;;;;;7.38;90.35;101259.13;5127649;28;20571;-72
2022/04/29 04:57:31;;;;;;;12.85;9.20;;;;;;;7.46;89.35;101251.34;5127565;28;20058;-71
2022/04/29 04:59:58;;;;;;;12.60;9.02;;;;;;;7.46;89.66;101261.97;5127784;28;20427;-71
2022/04/29 05:02:36;;;;;;;14.57;8.95;;;;;;;7.45;89.75;101260.28;5127197;28;20035;-74
2022/04/29 05:05:21;;;;;;;13.52;9.35;;;;;;;7.50;89.51;101260.75;5128129;28;20039;-72
2022/04/29 05:07:55;;;;;;;12.43;9.07;;;;;;;7.54;89.44;101271.91;5128804;28;20058;-71
2022/04/29 05:10:20;;;;;;;13.30;9.00;;;;;;;7.58;89.24;101260.94;5127221;28;20491;-72
2022/04/29 05:12:47;;;;;;;16.92;10.02;;;;;;;7.62;88.66;101266.81;5127154;28;20479;-71
2022/04/29 05:15:16;;;;;;;13.00;9.30;;;;;;;7.67;89.37;101275.22;5128515;27;20051;-71
2022/04/29 05:17:43;;;;;;;13.32;8.98;;;;;;;7.75;88.68;101272.75;5127068;28;20474;-73
2022/04/29 05:20:26;;;;;;;12.68;9.45;;;;;;;7.76;88.32;101281.53;5128546;28;20518;-71
2022/04/29 05:22:52;;;;;;;11.60;8.73;;;;;;;7.84;87.93;101279.09;5126893;28;20043;-71
2022/04/29 05:25:18;;;;;;;13.23;9.50;;;;;;;7.86;87.60;101283.31;5126988;28;20406;-71
2022/04/29 05:28:02;;;;;;;12.25;9.23;;;;;;;7.88;87.58;101278.69;5128722;28;20092;-73
2022/04/29 05:30:48;;;;;;;14.75;8.93;;;;;;;7.85;87.15;101268.34;5128320;28;20053;-71
2022/04/29 05:33:32;;;;;;;15.13;8.95;;;;;;;8.04;87.05;101275.59;5116614;28;20051;-71
2022/04/29 05:36:17;;;;;;;12.40;8.70;;;;;;;8.12;86.36;101285.53;5114482;28;20073;-71
2022/04/29 05:44:13;;;;;;;12.85;8.65;;;;;;;8.40;84.44;101290.16;5114506;28;20043;-72
2022/04/29 05:46:39;;;;;;;11.68;8.77;;;;;;;8.54;83.94;101291.63;5112835;28;20419;-69
2022/04/29 05:49:05;;;;;;;11.75;8.23;;;;;;;8.64;84.06;101289.00;5112679;28;20126;-69
2022/04/29 05:51:37;;;;;;;12.27;8.55;;;;;;;8.72;83.18;101291.81;5112401;28;20042;-70
2022/04/29 05:54:03;;;;;;;12.05;8.27;;;;;;;8.80;83.05;101293.78;5112582;28;20035;-71
2022/04/29 05:56:29;;;;;;;14.32;8.80;;;;;;;8.90;81.63;101300.81;5112629;28;20028;-69
2022/04/29 05:58:55;;;;;;;10.60;8.38;;;;;;;8.93;81.19;101303.19;5112684;28;20042;-70
2022/04/29 06:01:38;;;;;;;15.27;8.95;;;;;;;9.03;81.25;101310.34;5114100;28;20519;-70
2022/04/29 06:04:05;;;;;;;11.13;8.57;;;;;;;9.09;80.22;101305.31;5112373;28;20036;-70
2022/04/29 06:06:33;;;;;;;;;;;;;;;9.10;80.72;101303.50;5112874;28;20059;-70
2022/04/29 06:08:59;;;;;;;11.38;7.57;;;;;;;9.22;80.02;101305.06;5112723;28;19999;-69
2022/04/29 06:11:25;;;;;;;13.75;8.35;;;;;;;9.29;79.67;101300.84;5112570;28;20123;-71
2022/04/29 06:13:53;;;;;;;9.98;7.75;;;;;;;9.32;79.01;101308.53;5112761;28;20040;-71
2022/04/29 06:16:48;;;;;;;;;;;;;;;9.36;78.04;101299.31;5076126;28;20037;-69
2022/04/29 06:19:32;;;;;;;12.63;7.88;;;;;;;9.39;78.62;101290.19;5113760;28;19922;-69
2022/04/29 06:22:16;;;;;;;11.82;8.32;;;;;;;9.50;77.78;101279.44;5113289;28;20116;-69
2022/04/29 06:24:44;;;;;;;13.55;8.40;;;;;;;9.49;77.57;101283.06;5112209;28;20032;-69
2022/04/29 06:27:11;;;;;;;14.15;9.38;;;;;;;9.63;76.93;101281.81;5112408;28;20438;-69
2022/04/29 06:29:36;;;;;;;9.27;8.15;;;;;;;9.69;76.74;101275.91;5112286;28;20097;-69
2022/04/29 06:32:03;;;;;;;10.13;7.65;;;;;;;9.70;77.30;101283.75;5111728;28;20488;-68
2022/04/29 06:34:55;;;;;;;11.38;8.05;;;;;;;9.81;77.10;101280.09;5096737;28;20495;-67
2022/04/29 06:37:21;;;;;;;11.40;8.57;;;;;;;9.78;77.30;101277.75;5112201;28;20130;-67
2022/04/29 06:39:52;;;;;;;11.52;8.70;;;;;;;9.98;76.19;101289.19;5111807;28;20031;-67
2022/04/29 06:42:45;;;;;;;11.40;8.32;;;;;;;10.04;76.18;101284.13;5111629;28;20036;-67
2022/04/29 06:45:29;;;;;;;20.25;9.00;;;;;;;10.24;75.28;101284.91;5112108;28;20123;-68
2022/04/29 06:48:00;;;;;;;11.80;7.97;;;;;;;10.35;74.57;101283.88;5113058;28;20043;-70
2022/04/29 06:50:44;;;;;;;11.88;8.18;;;;;;;10.49;74.99;101279.88;5113936;28;20078;-69
2022/04/29 06:53:40;;;;;;;11.07;7.95;;;;;;;10.72;73.79;101283.00;5103224;28;20072;-69
2022/04/29 06:56:07;;;;;;;;;;;;;;;10.83;71.85;101280.16;5111963;28;20044;-70
2022/04/29 06:58:32;;;;;;;10.32;7.50;;;;;;;10.71;71.79;101279.50;5111509;28;19936;-70
2022/04/29 07:00:58;;;;;;;11.48;7.88;;;;;;;10.81;71.84;101274.94;5094661;28;20032;-69
2022/04/29 07:03:24;;;;;;;14.05;8.75;;;;;;;10.93;70.79;101269.41;5111141;28;20039;-70
2022/04/29 07:05:53;;;;;;;11.02;8.30;;;;;;;10.95;71.29;101268.25;5112728;28;20046;-69
2022/04/29 07:08:21;;;;;;;11.43;8.80;;;;;;;10.99;71.67;101269.63;5111843;28;20587;-68
2022/04/29 07:11:12;;;;;;;12.02;8.15;;;;;;;11.10;71.08;101265.94;5113093;28;20044;-69
2022/04/29 07:13:53;;;;;;;11.10;7.85;;;;;;;11.20;70.98;101265.84;5111322;28;20625;-70
2022/04/29 07:16:19;;;;;;;11.93;8.18;;;;;;;11.22;70.80;101270.03;5111436;28;20067;-69
2022/04/29 07:19:03;;;;;;;12.88;8.38;;;;;;;11.35;71.46;101267.00;5113177;28;20084;-68
2022/04/29 07:21:29;;;;;;;13.07;8.70;;;;;;;11.50;70.46;101267.28;5111517;28;20032;-69
2022/04/29 07:23:55;;;;;;;9.85;8.40;;;;;;;11.58;70.69;101254.81;5111130;28;20089;-69
2022/04/29 07:26:23;;;;;;;11.73;8.32;;;;;;;11.72;70.34;101260.59;5111298;28;20501;-68
2022/04/29 07:28:50;;;;;;;9.52;7.88;;;;;;;11.82;70.12;101256.88;5111559;28;20142;-68
2022/04/29 07:31:15;;;;;;;11.23;8.50;;;;;;;11.94;68.65;101250.28;5111078;28;20077;-69
2022/04/29 07:33:59;;;;;;;10.95;8.13;;;;;;;12.14;68.60;101256.22;5111995;28;20047;-69
2022/04/29 07:42:13;;;;;;;11.63;8.52;;;;;;;12.67;65.12;101256.94;5110656;28;20127;-69
2022/04/29 07:44:39;;;;;;;10.82;7.88;;;;;;;12.86;64.62;101256.66;5110749;28;20159;-68
2022/04/29 07:47:08;;;;;;;11.30;7.93;;;;;;;13.00;62.99;101250.69;5110699;28;20036;-68
2022/04/29 07:49:54;;;;;;;12.00;7.72;;;;;;;13.25;62.69;101258.78;5104418;28;20496;-68
2022/04/29 07:52:19;;;;;;;10.75;8.05;;;;;;;13.37;63.39;101257.44;5110524;28;20055;-69
2022/04/29 07:54:45;;;;;;;12.95;8.45;;;;;;;13.60;62.16;101252.25;5110609;28;20036;-68
2022/04/29 07:57:11;;;;;;;11.70;8.15;;;;;;;13.70;61.09;101250.22;5110370;28;20068;-69
2022/04/29 07:59:37;;;;;;;15.32;7.90;;;;;;;13.96;61.56;101244.66;5110587;28;20038;-69
2022/04/29 08:02:24;;;;;;;;;;;;;;;14.33;59.92;101243.19;5098124;28;20035;-68
2022/04/29 08:04:49;;;;;;;10.23;7.13;;;;;;;14.55;58.71;101250.50;5111341;28;19923;-69
2022/04/29 08:07:15;;;;;;;13.77;7.38;;;;;;;14.86;57.15;101253.16;5094018;28;20061;-69
2022/04/29 08:09:41;;;;;;;9.55;7.38;;;;;;;14.90;56.08;101248.31;5111171;28;20169;-69
2022/04/29 08:12:12;;;;;;;12.05;7.82;;;;;;;15.09;55.23;101241.63;5110782;28;20035;-71
2022/04/29 08:14:57;;;;;;;13.82;8.63;;;;;;;15.26;56.53;101251.25;5112043;28;20694;-70
2022/04/29 08:17:49;;;;;;;12.05;7.32;;;;;;;15.59;55.33;101243.75;5112016;28;20106;-70
2022/04/29 08:20:14;;;;;;;11.55;7.75;;;;;;;15.75;54.55;101237.41;5110508;28;20042;-70
2022/04/29 08:22:46;;;;;;;11.05;7.25;;;;;;;15.82;53.77;101237.50;5110256;28;20085;-69
2022/04/29 08:25:15;;;;;;;13.55;7.53;;;;;;;15.92;54.13;101233.56;5110358;28;20032;-70
2022/04/29 08:27:41;;;;;;;10.68;7.47;;;;;;;15.92;54.65;101238.94;5110348;28;20098;-71
2022/04/29 08:30:07;;;;;;;11.13;7.97;;;;;;;15.89;54.64;101233.91;5110349;28;20127;-70
2022/04/29 08:32:38;;;;;;;10.98;7.70;;;;;;;16.04;54.53;101243.81;5076780;28;20084;-69
2022/04/29 08:35:05;;;;;;;10.15;7.20;;;;;;;16.06;54.45;101244.50;5110724;28;20492;-69
2022/04/29 08:37:31;;;;;;;13.57;7.53;;;;;;;16.02;54.46;101241.31;5093753;28;20040;-69
2022/04/29 08:39:57;;;;;;;12.27;7.53;;;;;;;15.97;54.05;101241.03;5110609;28;20479;-69
2022/04/29 08:42:26;;;;;;;9.85;8.05;;;;;;;15.97;53.92;101238.34;5110384;28;20043;-70
2022/04/29 08:44:53;;;;;;;9.45;7.25;;;;;;;16.03;53.80;101234.94;5110206;28;20042;-70
2022/04/29 08:47:39;;;;;;;10.70;7.90;;;;;;;16.11;53.77;101232.16;5110157;28;20028;-70
2022/04/29 08:50:17;;;;;;;11.32;7.30;;;;;;;16.24;53.32;101232.34;5110029;28;20058;-70
2022/04/29 08:52:44;;;;;;;11.48;7.70;;;;;;;16.27;53.11;101231.97;5109654;28;20082;-71
2022/04/29 09:00:44;;;;;;;11.00;7.82;;;;;;;16.47;52.60;101221.47;5111161;28;20448;-70
2022/04/29 09:03:14;;;;;;;11.30;7.45;;;;;;;16.33;52.18;101214.25;5092763;28;20035;-71
2022/04/29 09:05:44;;;;;;;12.55;8.07;;;;;;;16.26;52.46;101214.16;5111484;28;20119;-70
2022/04/29 09:08:14;;;;;;;10.43;7.78;;;;;;;16.57;52.43;101223.03;5113175;28;20205;-69
2022/04/29 09:10:57;;;;;;;9.43;7.40;;;;;;;16.83;52.38;101215.28;5114993;28;20044;-71
2022/04/29 09:13:28;;;;;;;10.73;7.50;;;;;;;17.09;51.23;101220.94;5114744;28;20080;-70
2022/04/29 09:15:58;;;;;;;11.50;7.43;;;;;;;17.31;51.05;101210.16;5115318;28;20028;-69
2022/04/29 09:18:29;;;;;;;10.38;7.80;;;;;;;17.29;50.37;101215.75;5114237;28;20042;-70
2022/04/29 09:20:55;;;;;;;11.02;6.72;;;;;;;17.37;49.82;101212.06;5114949;28;20118;-70
2022/04/29 09:23:30;;;;;;;8.90;6.85;;;;;;;17.35;50.44;101200.69;5113377;28;20110;-70
2022/04/29 09:26:27;;;;;;;10.88;6.38;;;;;;;17.82;50.65;101204.56;5114715;28;20504;-71
2022/04/29 09:29:22;;;;;;;14.82;8.35;;;;;;;17.89;49.05;101183.88;5105212;28;20281;-70
2022/04/29 09:32:16;;;;;;;9.38;7.20;;;;;;;17.93;48.27;101201.31;5058738;28;20126;-70
2022/04/29 09:35:01;;;;;;;13.18;7.78;;;;;;;17.67;48.29;101185.78;5115007;28;20070;-70
2022/04/29 09:37:28;;;;;;;11.23;7.63;;;;;;;17.69;49.24;101188.28;5114873;28;20039;-70
2022/04/29 09:40:03;;;;;;;9.13;7.03;;;;;;;17.85;48.64;101190.69;5114728;28;20111;-70
2022/04/29 09:42:42;;;;;;;11.10;6.75;;;;;;;18.05;48.01;101177.31;5114282;28;20126;-70
2022/04/29 09:45:19;;;;;;;10.07;6.28;;;;;;;18.29;48.29;101174.13;5113024;28;20031;-71
2022/04/29 09:47:44;;;;;;;13.57;7.78;;;;;;;18.15;46.36;101173.22;5115091;28;20659;-71
2022/04/29 09:50:10;;;;;;;13.15;7.43;;;;;;;18.22;46.55;101173.25;5114542;28;20063;-70
2022/04/29 09:52:40;;;;;;;9.50;7.28;;;;;;;18.28;44.01;101166.22;5114324;28;20020;-71
2022/04/29 09:55:14;;;;;;;9.30;6.55;;;;;;;18.48;44.71;101160.91;5114498;28;20043;-70
2022/04/29 09:57:58;;;;;;;13.40;6.78;;;;;;;18.86;45.15;101161.25;5114525;28;20115;-69
2022/04/29 10:00:25;;;;;;;9.48;6.85;;;;;;;19.14;44.49;101156.47;5112995;28;20042;-70
2022/04/29 10:02:52;;;;;;;10.07;7.28;;;;;;;19.28;43.58;101157.28;5112626;28;20036;-70
2022/04/29 10:05:20;;;;;;;11.30;6.18;;;;;;;18.98;42.40;101154.19;5113681;28;20036;-70
2022/04/29 10:08:12;;;;;;;9.70;6.88;;;;;;;19.19;42.61;101153.97;5111694;28;20185;-70
2022/04/29 10:10:38;;;;;;;9.40;7.20;;;;;;;19.05;42.32;101159.59;5114125;28;20038;-70
2022/04/29 10:13:07;;;;;;;10.50;7.13;;;;;;;19.23;42.35;101151.69;5112252;28;20039;-70
2022/04/29 10:16:03;;;;;;;10.55;6.68;;;;;;;19.78;42.17;101147.69;5112518;28;20046;-70
2022/04/29 10:22:04;;;;;;;10.63;6.43;;;;;;;19.97;39.88;101140.56;5112015;28;20027;-71
2022/04/29 10:24:30;;;;;;;8.63;5.83;;;;;;;20.13;38.55;101141.13;5113872;28;20488;-70
2022/04/29 10:26:57;;;;;;;7.82;6.18;;;;;;;19.63;39.51;101136.31;5113555;28;20030;-71
2022/04/29 10:29:23;;;;;;;8.13;5.40;;;;;;;20.02;35.71;101134.53;5115106;28;20043;-70
2022/04/29 10:32:08;;;;;;;8.82;5.03;;;;;;;20.00;35.30;101139.31;5104342;22;20471;-69
2022/04/29 10:34:35;;;;;;;6.50;5.30;;;;;;;20.21;32.15;101143.59;5053256;28;20052;-68
2022/04/29 10:37:11;;;;;;;6.57;4.70;;;;;;;20.45;30.89;101156.41;5035264;28;20396;-69
2022/04/29 10:39:37;;;;;;;6.82;4.97;;;;;;;20.30;30.51;101135.03;5019121;28;20458;-69
2022/04/29 10:42:06;;;;;;;7.72;5.03;;;;;;;20.49;29.98;101143.28;5052622;28;20040;-69
2022/04/29 10:44:32;;;;;;;9.38;4.82;;;;;;;20.73;29.56;101139.78;5034895;28;20041;-70
2022/04/29 10:47:24;;;;;;;8.68;4.80;;;;;;;20.91;30.52;101141.75;5035098;28;20037;-70
2022/04/29 10:50:31;;;;;;;7.40;4.88;;;;;;;21.47;29.22;101138.19;5025282;28;20501;-69
2022/04/29 10:53:15;;;;;;;7.32;4.75;;;;;;;21.51;28.37;101135.84;5052568;28;20052;-70
2022/04/29 10:55:41;;;;;;;6.63;4.95;;;;;;;21.48;27.73;101130.88;5034810;28;20062;-69
2022/04/29 10:58:21;;;;;;;7.97;4.90;;;;;;;21.42;28.83;101131.78;5052531;28;20458;-70
2022/04/29 11:00:56;;;;;;;4.80;3.90;;;;;;;21.80;29.23;101129.69;5034943;28;20033;-69
2022/04/29 11:03:43;;;;;;;6.05;3.95;;;;;;;22.25;27.23;101125.84;5034340;28;20033;-70
2022/04/29 11:06:12;;;;;;;10.30;4.40;;;;;;;22.63;26.04;101122.81;5052446;28;20386;-71
2022/04/29 11:08:38;;;;;;;5.45;4.05;;;;;;;22.73;26.63;101115.75;5034657;28;20394;-70
2022/04/29 11:11:04;;;;;;;6.78;4.38;;;;;;;23.34;25.04;101115.59;5052535;28;20459;-69
2022/04/29 11:13:57;;;;;;;6.82;4.70;;;;;;;23.52;24.83;101105.44;5052875;28;20048;-70
2022/04/29 11:16:48;;;;;;;7.45;5.03;;;;;;;23.99;24.92;101104.53;5052415;28;20075;-70
2022/04/29 11:19:35;;;;;;;7.28;4.50;;;;;;;24.42;25.90;101104.03;5034790;28;20079;-70
2022/04/29 11:24:53;;;;;;;7.53;5.15;;;;;;;23.92;25.25;101096.50;5034367;28;20041;-70
2022/04/29 11:27:37;;;;;;;8.73;5.10;;;;;;;23.59;26.96;101099.84;5034309;28;20413;-70
2022/04/29 11:30:07;;;;;;;7.38;5.18;;;;;;;23.63;25.74;101086.66;5033781;28;20099;-70
2022/04/29 11:32:51;;;;;;;7.20;5.43;;;;;;;22.91;26.59;101090.44;5051736;28;20091;-69
2022/04/29 11:35:22;;;;;;;8.93;6.15;;;;;;;22.66;27.09;101081.63;5051972;28;20045;-70
2022/04/29 11:37:48;;;;;;;9.05;5.47;;;;;;;22.58;27.08;101077.34;5017698;28;20128;-69
2022/04/29 11:40:13;;;;;;;8.18;4.82;;;;;;;22.32;28.01;101085.88;5034243;28;20116;-71
2022/04/29 11:42:50;;;;;;;13.45;5.80;;;;;;;22.70;27.69;101086.34;5051411;28;20079;-70
2022/04/29 11:45:15;;;;;;;6.93;5.63;;;;;;;22.38;27.17;101071.41;5051910;28;20071;-69
2022/04/29 11:47:46;;;;;;;8.93;5.72;;;;;;;22.74;28.05;101065.78;5033808;28;20771;-70
2022/04/29 11:50:11;;;;;;;12.80;5.90;;;;;;;22.93;28.49;101069.28;5051650;28;20086;-69
2022/04/29 11:52:39;;;;;;;9.85;5.28;;;;;;;23.12;28.53;101061.03;5051371;28;20044;-70
2022/04/29 11:55:11;;;;;;;7.97;5.80;;;;;;;23.17;28.29;101063.88;5051571;28;20040;-71
2022/04/29 11:57:45;;;;;;;9.25;5.40;;;;;;;23.27;28.22;101053.22;5051628;28;20060;-70
2022/04/29 12:00:25;;;;;;;7.72;5.38;;;;;;;23.11;27.76;101052.03;5051437;28;20084;-70
2022/04/29 12:02:52;;;;;;;7.85;5.18;;;;;;;23.39;27.99;101056.75;5051244;28;20571;-69
2022/04/29 12:05:23;;;;;;;9.15;5.85;;;;;;;23.10;27.96;101063.16;5033622;28;20063;-70
2022/04/29 12:07:51;;;;;;;8.98;5.85;;;;;;;23.31;27.69;101061.72;5051715;28;20045;-69
2022/04/29 12:10:30;;;;;;;9.40;6.10;;;;;;;23.83;27.35;101057.16;5035513;28;20033;-69
2022/04/29 12:12:57;;;;;;;8.25;5.95;;;;;;;24.04;26.72;101053.75;5051254;28;20045;-70
2022/04/29 12:15:30;;;;;;;9.82;6.22;;;;;;;23.83;26.60;101044.38;5051534;28;20033;-71
2022/04/29 12:18:01;;;;;;;7.63;6.05;;;;;;;24.75;25.40;101042.53;5051376;28;20401;-70
2022/04/29 12:20:28;;;;;;;9.38;5.68;;;;;;;25.17;24.15;101038.31;5051758;28;20504;-70
2022/04/29 12:22:54;;;;;;;7.70;5.55;;;;;;;25.59;26.07;101045.13;5033457;28;20064;-70
2022/04/29 12:25:38;;;;;;;12.95;6.05;;;;;;;26.44;24.75;101039.00;5051424;28;20037;-70
2022/04/29 12:28:15;;;;;;;7.10;5.53;;;;;;;26.67;24.05;101037.84;5051526;28;20033;-71
2022/04/29 12:36:59;;;;;;;13.32;6.60;;;;;;;25.58;24.98;101013.47;5033460;28;20071;-70
2022/04/29 12:39:41;;;;;;;7.43;5.63;;;;;;;25.02;25.35;101018.94;5033566;28;20029;-70
2022/04/29 12:42:09;;;;;;;9.75;5.70;;;;;;;25.13;25.12;101026.25;5051034;28;20144;-70
2022/04/29 12:47:38;;;;;;;7.03;5.82;;;;;;;23.63;26.57;101018.69;5037161;28;20037;-70
2022/04/29 12:50:28;;;;;;;8.20;5.60;;;;;;;23.90;26.57;101024.38;5055064;28;20508;-70
2022/04/29 12:53:01;;;;;;;8.95;6.22;;;;;;;23.27;26.75;101012.44;5036999;28;20083;-70
2022/04/29 12:55:30;;;;;;;9.30;5.97;;;;;;;23.11;27.93;101015.91;5054891;28;20051;-70
2022/04/29 12:58:12;;;;;;;10.30;5.53;;;;;;;23.51;27.19;101013.22;5037152;28;20504;-71
2022/04/29 13:00:39;;;;;;;7.93;5.28;;;;;;;23.99;27.47;101009.31;5054821;28;20063;-76
2022/04/29 13:03:10;;;;;;;7.25;5.70;;;;;;;23.55;27.05;101007.09;5054618;28;20486;-76
2022/04/29 13:05:40;;;;;;;8.65;6.10;;;;;;;24.58;25.31;100999.78;5054918;28;20039;-76
2022/04/29 13:08:09;;;;;;;11.05;5.85;;;;;;;24.92;25.92;101001.66;5020721;28;20037;-76
2022/04/29 13:11:03;;;;;;;9.98;5.60;;;;;;;25.70;24.68;100995.06;5054552;28;20438;-76
2022/04/29 13:13:30;;;;;;;9.98;5.82;;;;;;;25.81;25.15;100991.38;5035379;28;20049;-77
2022/04/29 13:15:56;;;;;;;8.75;6.32;;;;;;;26.38;23.63;100981.84;5036876;28;20102;-77
2022/04/29 13:18:24;;;;;;;9.77;5.35;;;;;;;26.70;23.43;100982.66;5036934;28;20040;-76
2022/04/29 13:20:52;;;;;;;9.43;6.10;;;;;;;26.77;23.46;100977.78;5055701;28;20033;-78
2022/04/29 13:23:21;;;;;;;12.93;6.28;;;;;;;27.31;23.79;100971.28;5036942;28;20041;-76
2022/04/29 13:25:51;;;;;;;10.05;6.45;;;;;;;26.69;23.25;100967.38;5037034;28;20044;-77
2022/04/29 13:28:17;;;;;;;8.35;6.75;;;;;;;26.32;23.78;100959.13;5054734;28;20033;-77
2022/04/29 13:30:42;;;;;;;8.30;6.25;;;;;;;26.35;23.60;100953.16;5054431;28;20052;-77
2022/04/29 13:33:09;;;;;;;8.95;5.45;;;;;;;25.67;24.36;100946.47;5054318;28;20086;-77
2022/04/29 13:35:36;;;;;;;7.68;5.47;;;;;;;25.17;24.81;100947.53;5054659;28;20043;-76
2022/04/29 13:38:02;;;;;;;7.55;5.57;;;;;;;24.70;25.38;100947.91;5054352;28;20070;-77
2022/04/29 13:40:28;;;;;;;10.50;6.90;;;;;;;23.97;26.15;100943.44;5054271;28;20029;-76
2022/04/29 13:42:53;;;;;;;7.88;6.20;;;;;;;23.80;26.63;100943.41;5053833;28;20098;-75
2022/04/29 13:45:20;;;;;;;15.32;6.63;;;;;;;23.27;26.72;100931.72;5054143;28;20550;-76
2022/04/29 13:47:46;;;;;;;10.65;6.40;;;;;;;23.09;27.16;100936.53;5054083;28;20505;-76
2022/04/29 13:50:12;;;;;;;12.13;5.88;;;;;;;22.43;28.32;100933.94;5053981;28;20041;-76
2022/04/29 13:55:21;;;;;;;8.82;5.80;;;;;;;22.55;29.48;100942.06;5053725;28;20545;-77
2022/04/29 13:57:47;;;;;;;8.98;5.95;;;;;;;22.00;29.92;100936.06;5053877;28;20057;-76
2022/04/29 14:00:14;;;;;;;11.02;6.45;;;;;;;21.74;30.80;100946.22;5036027;28;20049;-76
2022/04/29 14:02:40;;;;;;;9.82;6.13;;;;;;;21.34;30.45;100943.22;5036209;28;20036;-77
2022/04/29 14:05:10;;;;;;;9.37;6.27;;;;;;;21.48;30.62;100941.16;5036933;28;20411;-76
2022/04/29 14:07:38;;;;;;;7.45;5.88;;;;;;;21.67;29.91;100930.06;5053642;28;20045;-76
2022/04/29 14:10:04;;;;;;;8.15;6.10;;;;;;;21.53;30.62;100927.75;5053644;28;20043;-76
2022/04/29 14:12:30;;;;;;;9.10;5.70;;;;;;;21.40;31.20;100929.59;5053476;28;20071;-76
2022/04/29 14:14:56;;;;;;;8.90;5.78;;;;;;;21.62;32.33;100939.94;5053699;28;20068;-77
2022/04/29 14:17:22;;;;;;;10.45;6.13;;;;;;;21.61;31.50;100928.25;5053705;28;20041;-70
2022/04/29 14:19:51;;;;;;;10.82;6.60;;;;;;;21.43;31.30;100916.63;5053874;28;20037;-70
2022/04/29 14:22:16;;;;;;;8.77;6.05;;;;;;;21.92;32.00;100915.53;5018694;28;20029;-70
2022/04/29 14:24:42;;;;;;;9.82;6.63;;;;;;;22.19;29.77;100929.53;5035439;28;20067;-71
2022/04/29 14:27:08;;;;;;;7.32;6.35;;;;;;;21.94;30.39;100918.81;5053285;28;20033;-71
2022/04/29 14:29:35;;;;;;;9.75;6.00;;;;;;;22.27;29.78;100921.03;5035392;28;20464;-70
2022/04/29 14:32:05;;;;;;;9.50;6.03;;;;;;;22.14;34.42;100924.78;5052595;28;20033;-70
2022/04/29 14:34:32;;;;;;;10.23;6.60;;;;;;;22.51;33.55;100915.63;5052941;28;20048;-71
2022/04/29 14:36:58;;;;;;;10.93;6.22;;;;;;;22.72;29.67;100913.16;5035129;28;20090;-70
2022/04/29 14:39:24;;;;;;;12.80;6.97;;;;;;;22.77;29.86;100898.88;5053088;28;20098;-70
2022/04/29 14:41:50;;;;;;;9.68;6.60;;;;;;;22.71;29.50;100897.94;5052629;28;20037;-70
2022/04/29 14:44:16;;;;;;;10.88;6.45;;;;;;;22.34;30.32;100893.78;5002184;28;20131;-70
2022/04/29 14:46:42;;;;;;;7.43;6.38;;;;;;;22.42;30.82;100896.97;5035073;28;20090;-70
2022/04/29 14:49:08;;;;;;;13.23;8.15;;;;;;;22.04;31.50;100891.97;5052774;28;20037;-70
2022/04/29 14:51:34;;;;;;;13.18;8.95;;;;;;;22.15;30.71;100893.06;5052425;28;20067;-70
2022/04/29 14:53:59;;;;;;;10.30;7.45;;;;;;;21.99;31.28;100878.28;5052521;28;20048;-70
2022/04/29 14:56:25;;;;;;;12.63;6.57;;;;;;;22.22;31.44;100888.34;5052619;28;20171;-71
2022/04/29 14:58:50;;;;;;;11.98;7.63;;;;;;;21.92;32.02;100888.41;5052560;28;20048;-71
2022/04/29 15:01:17;;;;;;;11.85;7.85;;;;;;;21.82;32.53;100902.50;5052559;28;20044;-71
2022/04/29 15:03:45;;;;;;;9.80;7.40;;;;;;;21.76;32.51;100889.06;5052068;28;20470;-71
2022/04/29 15:06:11;;;;;;;13.50;8.50;;;;;;;21.40;32.67;100891.66;5051467;28;20072;-71
2022/04/29 15:08:36;;;;;;;12.43;8.32;;;;;;;21.49;32.75;100883.19;5052200;28;20033;-71
2022/04/29 15:16:29;;;;;;;14.00;8.18;;;;;;;21.07;33.28;100893.94;5052172;28;20041;-70
2022/04/29 15:18:56;;;;;;;12.82;7.28;;;;;;;20.73;33.75;100895.31;5052128;28;20037;-70
2022/04/29 15:21:21;;;;;;;10.52;7.38;;;;;;;21.08;34.19;100882.84;5051977;28;20033;-71
2022/04/29 15:23:47;;;;;;;11.85;7.57;;;;;;;20.68;33.38;100884.38;5034176;28;20055;-70
2022/04/29 15:26:12;;;;;;;10.77;7.82;;;;;;;20.61;33.71;100879.03;5034241;28;20037;-70
2022/04/29 15:28:38;;;;;;;10.40;7.55;;;;;;;20.77;33.43;100878.41;5051886;28;20041;-70
2022/04/29 15:31:05;;;;;;;9.82;7.10;;;;;;;20.76;33.88;100884.88;5051660;28;20037;-71
2022/04/29 15:33:31;;;;;;;12.43;7.05;;;;;;;20.17;34.26;100875.44;5051631;28;20621;-71
2022/04/29 15:35:56;;;;;;;11.80;7.45;;;;;;;20.52;34.35;100874.94;5034063;28;20435;-70
2022/04/29 15:38:22;;;;;;;9.20;7.22;;;;;;;20.48;34.53;100871.03;5051751;28;20375;-71
2022/04/29 15:40:56;;;;;;;11.57;7.35;;;;;;;20.19;34.60;100873.34;5033778;28;20494;-71
2022/04/29 15:43:23;;;;;;;11.27;7.70;;;;;;;20.27;34.22;100859.53;5051264;28;20032;-70
2022/04/29 15:45:53;;;;;;;18.58;9.57;;;;;;;20.38;34.09;100865.25;5051585;28;20140;-70
2022/04/29 15:48:21;;;;;;;12.02;8.48;;;;;;;20.41;34.17;100860.25;5051534;28;20047;-71
2022/04/29 15:50:48;;;;;;;;;;;;;;;20.48;33.91;100869.16;5051708;28;20067;-71
2022/04/29 15:53:17;;;;;;;15.65;9.35;;;;;;;20.49;34.76;100861.88;5051288;28;19916;-71
2022/04/29 15:55:46;;;;;;;10.00;7.03;;;;;;;20.53;33.96;100863.88;5051433;28;20041;-71
2022/04/29 15:58:15;;;;;;;12.80;6.93;;;;;;;20.66;33.40;100872.91;5051670;28;20040;-71
2022/04/29 16:00:41;;;;;;;10.45;6.43;;;;;;;20.38;34.00;100870.69;5051366;28;20041;-70
2022/04/29 16:03:08;;;;;;;8.85;6.38;;;;;;;20.56;34.12;100876.97;5051282;28;20051;-70
2022/04/29 16:05:33;;;;;;;10.98;5.75;;;;;;;20.61;33.54;100875.50;5051378;28;20079;-71
2022/04/29 16:07:59;;;;;;;13.30;7.22;;;;;;;20.71;33.46;100875.78;5051363;28;20032;-71
2022/04/29 16:10:25;;;;;;;8.70;6.53;;;;;;;20.76;32.47;100863.22;5051403;28;20505;-70
2022/04/29 16:12:54;;;;;;;11.02;7.32;;;;;;;20.74;32.85;100856.41;5033218;28;20111;-71
2022/04/29 16:15:20;;;;;;;8.68;6.45;;;;;;;20.56;34.07;100855.34;5051337;28;20052;-71
2022/04/29 16:20:35;;;;;;;7.88;6.50;;;;;;;20.53;34.17;100857.66;5033135;28;20029;-71
2022/04/29 16:25:54;;;;;;;10.57;6.20;;;;;;;19.98;34.83;100842.09;5051163;28;20041;-70
2022/04/29 16:28:20;;;;;;;10.27;6.03;;;;;;;20.00;34.91;100850.00;5051212;28;20027;-71
2022/04/29 16:33:19;;;;;;;8.68;6.28;;;;;;;19.95;35.13;100845.25;5049710;28;20508;-70
2022/04/29 16:35:45;;;;;;;;;;;;;;;20.00;34.92;100840.00;5053953;28;20120;-70
2022/04/29 16:38:11;;;;;;;8.40;5.60;;;;;;;19.71;35.80;100841.50;5051432;28;20002;-70
2022/04/29 16:40:43;;;;;;;9.85;6.72;;;;;;;19.66;36.17;100840.47;5050916;28;20025;-70
2022/04/29 16:43:10;;;;;;;10.40;6.43;;;;;;;19.66;35.27;100838.59;5070516;28;20036;-70
2022/04/29 16:45:37;;;;;;;9.85;6.28;;;;;;;19.52;35.67;100828.91;5070876;28;20075;-70
2022/04/29 16:48:06;;;;;;;13.35;6.88;;;;;;;19.59;35.66;100827.00;5071718;28;20044;-70
2022/04/29 16:50:34;;;;;;;7.80;6.28;;;;;;;19.70;35.40;100829.03;5070871;28;20485;-70
2022/04/29 16:52:59;;;;;;;10.82;6.32;;;;;;;19.81;35.64;100815.81;5070853;28;20036;-70